createdAt,value
2023-02-28T00:00:31.016Z,102668.69
2023-02-28T00:02:57.568Z,102672.50
2023-02-28T00:05:25.908Z,102666.53
2023-02-28T00:07:52.877Z,102673.91
2023-02-28T00:10:23.748Z,102673.69
2023-02-28T00:12:54.968Z,102675.88
2023-02-28T00:15:22.422Z,102668.50
2023-02-28T00:17:48.889Z,102679.44
2023-02-28T00:20:16.643Z,102676.69
2023-02-28T00:22:48.109Z,102677.78
2023-02-28T00:25:17.301Z,102674.84
2023-02-28T00:27:44.449Z,102685.47
2023-02-28T00:30:15.078Z,102678.97
2023-02-28T00:32:41.639Z,102675.16
2023-02-28T00:35:08.866Z,102673.78
2023-02-28T00:37:35.698Z,102683.31
2023-02-28T00:40:02.361Z,102681.38
2023-02-28T00:42:28.884Z,102677.59
2023-02-28T00:44:55.360Z,102674.38
2023-02-28T00:47:21.856Z,102683.63
2023-02-28T00:49:48.669Z,102681.50
2023-02-28T00:52:15.232Z,102680.97
2023-02-28T00:54:41.694Z,102688.13
2023-02-28T00:57:08.225Z,102687.59
2023-02-28T00:59:34.758Z,102687.59
2023-02-28T01:02:01.365Z,102684.91
2023-02-28T01:04:28.034Z,102690.13
2023-02-28T01:06:54.528Z,102680.06
2023-02-28T01:09:21.038Z,102689.38
2023-02-28T01:11:47.545Z,102688.25
2023-02-28T01:14:16.237Z,102690.47
2023-02-28T01:16:42.890Z,102693.22
2023-02-28T01:19:09.509Z,102694.63
2023-02-28T01:21:36.641Z,102688.41
2023-02-28T01:24:04.968Z,102685.72
2023-02-28T01:26:31.885Z,102684.94
2023-02-28T01:31:52.880Z,102682.84
2023-02-28T01:34:20.453Z,102673.91
2023-02-28T01:36:46.932Z,102685.91
2023-02-28T01:39:13.869Z,102680.75
2023-02-28T01:41:40.845Z,102675.84
2023-02-28T01:44:46.528Z,102668.19
2023-02-28T01:47:13.202Z,102669.59
2023-02-28T01:49:40.725Z,102665.25
2023-02-28T01:52:08.200Z,102662.53
2023-02-28T01:54:35.991Z,102659.59
2023-02-28T01:57:07.182Z,102653.09
2023-02-28T01:59:47.242Z,102655.56
2023-02-28T02:02:15.218Z,102656.09
2023-02-28T02:04:59.674Z,102652.06
2023-02-28T02:07:27.550Z,102651.00
2023-02-28T02:10:19.013Z,102653.03
2023-02-28T02:13:19.584Z,102650.56
2023-02-28T02:16:20.112Z,102647.03
2023-02-28T02:18:58.606Z,102639.13
2023-02-28T02:22:06.435Z,102641.34
2023-02-28T02:24:41.914Z,102645.44
2023-02-28T02:27:26.050Z,102636.75
2023-02-28T02:30:20.437Z,102643.84
2023-02-28T02:33:33.578Z,102647.66
2023-02-28T02:36:09.198Z,102647.66
2023-02-28T02:38:38.862Z,102640.59
2023-02-28T02:41:09.434Z,102646.66
2023-02-28T02:43:40.121Z,102644.50
2023-02-28T02:46:21.054Z,102644.25
2023-02-28T02:48:49.260Z,102639.66
2023-02-28T02:51:19.852Z,102647.53
2023-02-28T02:53:52.109Z,102646.72
2023-02-28T02:56:24.116Z,102646.19
2023-02-28T02:58:52.622Z,102640.47
2023-02-28T03:01:29.148Z,102644.31
2023-02-28T03:04:02.690Z,102646.75
2023-02-28T03:06:29.647Z,102644.59
2023-02-28T03:08:56.205Z,102641.88
2023-02-28T03:11:22.805Z,102644.88
2023-02-28T03:14:01.512Z,102633.75
2023-02-28T03:16:34.701Z,102649.28
2023-02-28T03:19:03.776Z,102643.38
2023-02-28T03:21:49.048Z,102640.91
2023-02-28T03:24:43.971Z,102637.41
2023-02-28T03:27:16.161Z,102647.97
2023-02-28T03:29:52.285Z,102637.38
2023-02-28T03:32:22.778Z,102640.38
2023-02-28T03:34:56.760Z,102641.75
2023-02-28T03:37:25.764Z,102644.19
2023-02-28T03:40:01.924Z,102640.69
2023-02-28T03:42:32.064Z,102640.41
2023-02-28T03:45:03.220Z,102646.38
2023-02-28T03:47:51.934Z,102646.94
2023-02-28T03:50:23.433Z,102651.84
2023-02-28T03:53:02.246Z,102649.13
2023-02-28T03:55:38.285Z,102656.22
2023-02-28T03:58:13.700Z,102649.19
2023-02-28T04:00:47.787Z,102650.28
2023-02-28T04:03:15.019Z,102645.66
2023-02-28T04:05:55.461Z,102649.19
2023-02-28T04:08:23.047Z,102654.06
2023-02-28T04:10:56.114Z,102651.88
2023-02-28T04:13:22.642Z,102648.09
2023-02-28T04:15:49.116Z,102648.63
2023-02-28T04:18:15.597Z,102648.66
2023-02-28T04:20:42.222Z,102658.44
2023-02-28T04:23:08.737Z,102649.50
2023-02-28T04:25:35.212Z,102657.66
2023-02-28T04:28:01.687Z,102669.88
2023-02-28T04:30:28.308Z,102661.97
2023-02-28T04:32:54.740Z,102660.34
2023-02-28T04:35:21.220Z,102663.34
2023-02-28T04:37:47.666Z,102666.59
2023-02-28T04:40:14.241Z,102662.25
2023-02-28T04:42:40.741Z,102665.25
2023-02-28T04:45:07.984Z,102667.13
2023-02-28T04:47:34.478Z,102671.25
2023-02-28T04:50:01.022Z,102668.22
2023-02-28T04:52:28.690Z,102668.25
2023-02-28T04:54:55.170Z,102663.59
2023-02-28T04:57:21.691Z,102672.31
2023-02-28T04:59:48.194Z,102660.34
2023-02-28T05:02:14.737Z,102669.59
2023-02-28T05:04:41.306Z,102663.63
2023-02-28T05:07:07.908Z,102664.97
2023-02-28T05:09:34.376Z,102673.13
2023-02-28T05:12:00.920Z,102675.03
2023-02-28T05:14:27.421Z,102671.75
2023-02-28T05:16:53.854Z,102682.63
2023-02-28T05:19:22.218Z,102677.22
2023-02-28T05:21:54.333Z,102680.72
2023-02-28T05:24:23.832Z,102679.38
2023-02-28T05:26:53.031Z,102685.34
2023-02-28T05:29:20.114Z,102680.75
2023-02-28T05:31:47.074Z,102685.88
2023-02-28T05:34:13.741Z,102679.34
2023-02-28T05:36:40.485Z,102685.34
2023-02-28T05:39:08.526Z,102687.25
2023-02-28T05:41:35.067Z,102674.75
2023-02-28T05:44:04.297Z,102688.59
2023-02-28T05:46:30.761Z,102691.31
2023-02-28T05:48:58.849Z,102692.13
2023-02-28T05:51:25.441Z,102693.50
2023-02-28T05:53:52.150Z,102693.19
2023-02-28T05:56:18.662Z,102694.56
2023-02-28T05:58:45.158Z,102705.16
2023-02-28T06:01:24.340Z,102699.44
2023-02-28T06:03:50.979Z,102698.09
2023-02-28T06:06:17.607Z,102705.97
2023-02-28T06:08:45.552Z,102707.03
2023-02-28T06:11:12.293Z,102704.03
2023-02-28T06:13:38.787Z,102711.66
2023-02-28T06:16:05.666Z,102699.72
2023-02-28T06:18:32.164Z,102708.13
2023-02-28T06:20:58.721Z,102709.19
2023-02-28T06:23:25.238Z,102712.19
2023-02-28T06:25:51.766Z,102724.66
2023-02-28T06:28:18.293Z,102726.56
2023-02-28T06:30:46.510Z,102717.31
2023-02-28T06:33:13.217Z,102716.22
2023-02-28T06:35:39.999Z,102725.47
2023-02-28T06:38:06.726Z,102721.91
2023-02-28T06:40:36.027Z,102727.09
2023-02-28T06:43:02.959Z,102726.25
2023-02-28T06:45:29.720Z,102727.06
2023-02-28T06:47:56.253Z,102730.34
2023-02-28T06:50:22.781Z,102734.44
2023-02-28T06:52:49.274Z,102728.47
2023-02-28T06:55:15.769Z,102729.81
2023-02-28T06:57:42.219Z,102745.31
2023-02-28T07:00:10.257Z,102735.28
2023-02-28T07:02:38.391Z,102731.22
2023-02-28T07:05:06.410Z,102738.56
2023-02-28T07:07:33.464Z,102733.69
2023-02-28T07:10:00.009Z,102734.50
2023-02-28T07:12:26.443Z,102739.66
2023-02-28T07:14:52.999Z,102737.25
2023-02-28T07:17:19.463Z,102732.06
2023-02-28T07:19:46.078Z,102739.13
2023-02-28T07:22:14.300Z,102741.59
2023-02-28T07:24:42.393Z,102728.00
2023-02-28T07:27:08.884Z,102746.50
2023-02-28T07:29:35.359Z,102754.09
2023-02-28T07:32:02.086Z,102739.97
2023-02-28T07:34:28.565Z,102748.66
2023-02-28T07:36:55.183Z,102753.56
2023-02-28T07:39:22.916Z,102759.00
2023-02-28T07:41:49.484Z,102758.44
2023-02-28T07:44:16.150Z,102757.09
2023-02-28T07:46:42.698Z,102757.63
2023-02-28T07:49:09.169Z,102756.50
2023-02-28T07:51:35.622Z,102757.31
2023-02-28T07:54:02.277Z,102761.91
2023-02-28T07:56:29.102Z,102764.03
2023-02-28T07:58:55.988Z,102754.22
2023-02-28T08:01:22.810Z,102761.81
2023-02-28T08:03:49.532Z,102762.56
2023-02-28T08:06:20.002Z,102772.34
2023-02-28T08:08:46.977Z,102767.66
2023-02-28T08:11:14.006Z,102772.75
2023-02-28T08:13:40.541Z,102767.47
2023-02-28T08:16:07.315Z,102767.69
2023-02-28T08:18:34.027Z,102767.00
2023-02-28T08:21:00.976Z,102764.19
2023-02-28T08:23:27.490Z,102761.09
2023-02-28T08:25:56.121Z,102766.19
2023-02-28T08:28:26.715Z,102773.44
2023-02-28T08:30:54.626Z,102776.59
2023-02-28T08:33:21.305Z,102778.13
2023-02-28T08:35:47.899Z,102775.31
2023-02-28T08:38:14.422Z,102771.66
2023-02-28T08:40:41.571Z,102770.72
2023-02-28T08:43:08.061Z,102767.88
2023-02-28T08:45:34.650Z,102760.66
2023-02-28T08:48:01.124Z,102763.56
2023-02-28T08:50:27.635Z,102764.75
2023-02-28T08:52:54.112Z,102760.56
2023-02-28T08:55:20.680Z,102764.25
2023-02-28T08:57:47.123Z,102753.72
2023-02-28T09:00:14.820Z,102754.75
2023-02-28T09:02:41.716Z,102760.22
2023-02-28T09:05:09.347Z,102754.28
2023-02-28T09:07:35.849Z,102752.72
2023-02-28T09:10:02.373Z,102753.38
2023-02-28T09:12:34.636Z,102760.06
2023-02-28T09:15:01.132Z,102748.22
2023-02-28T09:17:30.724Z,102754.84
2023-02-28T09:19:58.065Z,102751.91
2023-02-28T09:22:24.739Z,102762.06
2023-02-28T09:24:51.168Z,102762.50
2023-02-28T09:27:17.745Z,102750.03
2023-02-28T09:29:44.255Z,102750.84
2023-02-28T09:32:10.958Z,102752.47
2023-02-28T09:34:38.557Z,102750.44
2023-02-28T09:37:05.588Z,102757.63
2023-02-28T09:39:32.705Z,102760.16
2023-02-28T09:41:59.480Z,102754.28
2023-02-28T09:44:37.560Z,102755.66
2023-02-28T09:47:15.603Z,102750.13
2023-02-28T09:49:47.251Z,102753.16
2023-02-28T09:52:20.300Z,102747.63
2023-02-28T09:54:46.928Z,102757.25
2023-02-28T09:57:37.571Z,102753.13
2023-02-28T10:00:18.238Z,102766.41
2023-02-28T10:03:14.644Z,102756.81
2023-02-28T10:05:56.239Z,102758.78
2023-02-28T10:08:34.778Z,102760.13
2023-02-28T10:11:08.563Z,102758.53
2023-02-28T10:13:46.962Z,102752.88
2023-02-28T10:16:26.373Z,102752.50
2023-02-28T10:19:03.709Z,102756.22
2023-02-28T10:21:39.719Z,102750.22
2023-02-28T10:24:20.046Z,102739.72
2023-02-28T10:26:48.309Z,102751.78
2023-02-28T10:29:15.795Z,102744.41
2023-02-28T10:31:42.561Z,102737.63
2023-02-28T10:34:13.624Z,102735.66
2023-02-28T10:36:40.831Z,102731.78
2023-02-28T10:39:35.281Z,102737.03
2023-02-28T10:42:01.725Z,102738.53
2023-02-28T10:44:28.252Z,102725.63
2023-02-28T10:46:54.834Z,102711.88
2023-02-28T10:49:23.930Z,102724.00
2023-02-28T10:51:55.004Z,102727.03
2023-02-28T10:54:32.400Z,102738.53
2023-02-28T10:57:15.506Z,102731.41
2023-02-28T10:59:42.775Z,102724.44
2023-02-28T11:05:25.030Z,102716.94
2023-02-28T11:07:57.714Z,102713.66
2023-02-28T11:10:30.921Z,102716.88
2023-02-28T11:12:59.765Z,102721.22
2023-02-28T11:15:28.888Z,102721.28
2023-02-28T11:17:57.500Z,102728.09
2023-02-28T11:20:27.692Z,102729.72
2023-02-28T11:22:55.973Z,102719.59
2023-02-28T11:25:27.179Z,102726.25
2023-02-28T11:28:03.009Z,102726.00
2023-02-28T11:30:43.145Z,102709.31
2023-02-28T11:33:30.723Z,102705.78
2023-02-28T11:36:05.318Z,102713.06
2023-02-28T11:38:35.962Z,102714.06
2023-02-28T11:41:08.385Z,102717.44
2023-02-28T11:43:40.890Z,102714.06
2023-02-28T11:46:18.676Z,102713.88
2023-02-28T11:48:54.250Z,102709.31
2023-02-28T11:51:34.602Z,102702.38
2023-02-28T11:54:25.860Z,102708.34
2023-02-28T11:57:01.284Z,102706.22
2023-02-28T11:59:42.920Z,102707.47
2023-02-28T12:02:35.035Z,102701.38
2023-02-28T12:05:29.154Z,102708.41
2023-02-28T12:07:58.568Z,102694.50
2023-02-28T12:10:36.518Z,102685.78
2023-02-28T12:13:16.557Z,102681.31
2023-02-28T12:15:55.498Z,102676.31
2023-02-28T12:18:43.371Z,102670.25
2023-02-28T12:21:19.104Z,102674.88
2023-02-28T12:24:03.215Z,102657.47
2023-02-28T12:26:40.259Z,102660.78
2023-02-28T12:29:28.148Z,102651.22
2023-02-28T12:32:02.871Z,102642.97
2023-02-28T12:34:40.581Z,102644.53
2023-02-28T12:37:14.738Z,102632.19
2023-02-28T12:39:55.954Z,102637.22
2023-02-28T12:42:34.785Z,102638.03
2023-02-28T12:45:23.279Z,102633.03
2023-02-28T12:47:58.239Z,102636.56
2023-02-28T12:50:26.328Z,102632.97
2023-02-28T12:53:06.727Z,102631.88
2023-02-28T12:55:41.966Z,102638.16
2023-02-28T12:58:33.532Z,102630.97
2023-02-28T13:01:12.031Z,102631.03
2023-02-28T13:03:47.635Z,102617.47
2023-02-28T13:06:42.203Z,102626.75
2023-02-28T13:09:13.483Z,102624.28
2023-02-28T13:11:48.772Z,102616.72
2023-02-28T13:14:36.812Z,102602.78
2023-02-28T13:17:15.256Z,102612.88
2023-02-28T13:19:52.764Z,102612.22
2023-02-28T13:22:28.976Z,102602.56
2023-02-28T13:24:57.068Z,102613.31
2023-02-28T13:27:34.457Z,102613.97
2023-02-28T13:30:01.474Z,102606.47
2023-02-28T13:32:34.048Z,102613.59
2023-02-28T13:35:00.465Z,102602.84
2023-02-28T13:37:26.941Z,102598.88
2023-02-28T13:39:54.487Z,102604.47
2023-02-28T13:42:29.710Z,102597.59
2023-02-28T13:45:02.211Z,102594.38
2023-02-28T13:47:36.056Z,102598.41
2023-02-28T13:50:27.142Z,102584.78
2023-02-28T13:53:02.878Z,102586.13
2023-02-28T13:55:54.044Z,102586.53
2023-02-28T13:58:45.935Z,102584.53
2023-02-28T14:01:37.299Z,102583.19
2023-02-28T14:04:41.493Z,102589.09
2023-02-28T14:07:09.534Z,102574.91
2023-02-28T14:09:35.935Z,102584.78
2023-02-28T14:12:40.049Z,102588.00
2023-02-28T14:15:28.405Z,102584.63
2023-02-28T14:17:57.397Z,102588.41
2023-02-28T14:20:27.469Z,102579.53
2023-02-28T14:23:02.350Z,102589.59
2023-02-28T14:25:36.950Z,102579.84
2023-02-28T14:28:47.997Z,102582.91
2023-02-28T14:31:26.649Z,102592.06
2023-02-28T14:34:11.413Z,102589.97
2023-02-28T14:36:41.785Z,102581.50
2023-02-28T14:39:12.707Z,102586.53
2023-02-28T14:41:41.204Z,102587.91
2023-02-28T14:44:15.541Z,102589.19
2023-02-28T14:46:43.552Z,102574.91
2023-02-28T14:49:37.798Z,102561.22
2023-02-28T14:52:12.262Z,102566.50
2023-02-28T14:54:40.286Z,102560.38
2023-02-28T14:57:07.223Z,102573.63
2023-02-28T14:59:35.738Z,102556.91
2023-02-28T15:02:24.176Z,102559.63
2023-02-28T15:05:19.983Z,102550.69
2023-02-28T15:07:48.740Z,102558.00
2023-02-28T15:10:22.209Z,102546.66
2023-02-28T15:12:54.245Z,102557.13
2023-02-28T15:15:28.158Z,102547.13
2023-02-28T15:18:05.284Z,102551.16
2023-02-28T15:20:33.933Z,102552.53
2023-02-28T15:23:01.012Z,102545.09
2023-02-28T15:25:27.990Z,102543.69
2023-02-28T15:27:57.209Z,102546.13
2023-02-28T15:30:30.284Z,102545.59
2023-02-28T15:33:12.423Z,102553.13
2023-02-28T15:35:39.237Z,102552.34
2023-02-28T15:38:26.112Z,102549.59
2023-02-28T15:40:59.001Z,102553.09
2023-02-28T15:43:34.346Z,102551.59
2023-02-28T15:46:02.531Z,102541.97
2023-02-28T15:48:32.930Z,102549.09
2023-02-28T15:51:02.275Z,102546.66
2023-02-28T15:53:36.808Z,102545.41
2023-02-28T15:56:06.900Z,102555.69
2023-02-28T15:58:35.965Z,102553.19
2023-02-28T16:01:07.827Z,102553.09
2023-02-28T16:03:45.180Z,102551.97
2023-02-28T16:06:34.812Z,102554.72
2023-02-28T16:09:01.760Z,102551.72
2023-02-28T16:11:29.067Z,102548.69
2023-02-28T16:13:55.901Z,102547.69
2023-02-28T16:16:26.326Z,102552.97
2023-02-28T16:18:58.537Z,102550.22
2023-02-28T16:21:26.331Z,102560.88
2023-02-28T16:23:52.803Z,102558.50
2023-02-28T16:26:25.949Z,102555.88
2023-02-28T16:28:53.177Z,102556.94
2023-02-28T16:31:20.057Z,102552.91
2023-02-28T16:33:47.460Z,102562.84
2023-02-28T16:36:20.544Z,102572.44
2023-02-28T16:38:47.085Z,102567.47
2023-02-28T16:41:19.747Z,102574.31
2023-02-28T16:43:49.350Z,102562.38
2023-02-28T16:46:17.608Z,102557.25
2023-02-28T16:48:46.219Z,102571.69
2023-02-28T16:51:16.720Z,102570.44
2023-02-28T16:53:44.496Z,102572.69
2023-02-28T16:56:24.147Z,102577.25
2023-02-28T16:58:51.930Z,102580.53
2023-02-28T17:01:22.725Z,102581.00
2023-02-28T17:03:50.274Z,102577.00
2023-02-28T17:06:20.838Z,102581.22
2023-02-28T17:08:47.486Z,102578.63
2023-02-28T17:11:14.007Z,102582.38
2023-02-28T17:13:40.529Z,102582.06
2023-02-28T17:16:10.389Z,102595.66
2023-02-28T17:18:37.387Z,102585.97
2023-02-28T17:21:03.981Z,102586.16
2023-02-28T17:23:30.445Z,102590.66
2023-02-28T17:25:58.172Z,102595.53
2023-02-28T17:28:25.191Z,102593.28
2023-02-28T17:30:52.037Z,102593.75
2023-02-28T17:33:18.688Z,102591.81
2023-02-28T17:35:45.285Z,102605.06
2023-02-28T17:38:20.203Z,102601.97
2023-02-28T17:40:46.704Z,102598.91
2023-02-28T17:43:13.334Z,102606.19
2023-02-28T17:45:39.869Z,102599.22
2023-02-28T17:48:07.119Z,102598.09
2023-02-28T17:50:34.138Z,102594.03
2023-02-28T17:53:00.867Z,102605.69
2023-02-28T17:55:27.449Z,102595.97
2023-02-28T17:57:53.945Z,102605.13
2023-02-28T18:00:24.824Z,102598.66
2023-02-28T18:02:52.043Z,102608.38
2023-02-28T18:05:18.801Z,102614.50
2023-02-28T18:07:45.560Z,102610.25
2023-02-28T18:10:22.517Z,102612.34
2023-02-28T18:12:51.533Z,102613.28
2023-02-28T18:15:21.067Z,102618.91
2023-02-28T18:17:48.764Z,102607.59
2023-02-28T18:20:15.744Z,102615.97
2023-02-28T18:22:43.503Z,102614.81
2023-02-28T18:25:16.600Z,102610.56
2023-02-28T18:27:59.034Z,102618.66
2023-02-28T18:30:31.464Z,102622.84
2023-02-28T18:32:59.570Z,102627.66
2023-02-28T18:35:35.736Z,102623.41
2023-02-28T18:38:22.441Z,102619.78
2023-02-28T18:41:03.686Z,102620.72
2023-02-28T18:43:32.577Z,102616.19
2023-02-28T18:46:08.040Z,102619.56
2023-02-28T18:48:35.643Z,102618.69
2023-02-28T18:51:14.659Z,102620.44
2023-02-28T18:53:43.461Z,102615.59
2023-02-28T18:56:13.635Z,102622.19
2023-02-28T18:58:40.964Z,102619.56
2023-02-28T19:01:22.935Z,102616.66
2023-02-28T19:03:50.916Z,102624.38
2023-02-28T19:06:18.420Z,102621.44
2023-02-28T19:08:44.977Z,102625.91
2023-02-28T19:11:16.696Z,102619.88
2023-02-28T19:13:43.681Z,102614.19
2023-02-28T19:16:11.522Z,102621.94
2023-02-28T19:18:38.062Z,102621.72
2023-02-28T19:21:07.956Z,102622.03
2023-02-28T19:23:34.522Z,102618.00
2023-02-28T19:26:01.083Z,102615.97
2023-02-28T19:28:30.795Z,102628.56
2023-02-28T19:30:57.295Z,102632.91
2023-02-28T19:33:23.792Z,102628.88
2023-02-28T19:35:50.365Z,102622.09
2023-02-28T19:38:17.204Z,102628.97
2023-02-28T19:40:43.727Z,102629.09
2023-02-28T19:43:10.420Z,102629.50
2023-02-28T19:45:38.303Z,102627.09
2023-02-28T19:48:05.285Z,102632.34
2023-02-28T19:50:31.856Z,102630.22
2023-02-28T19:53:00.451Z,102629.53
2023-02-28T19:55:27.339Z,102635.31
2023-02-28T19:57:53.811Z,102638.97
2023-02-28T20:00:20.372Z,102640.09
2023-02-28T20:02:46.868Z,102645.34
2023-02-28T20:05:13.395Z,102650.03
2023-02-28T20:07:39.908Z,102644.88
2023-02-28T20:10:06.767Z,102641.41
2023-02-28T20:12:33.216Z,102641.50
2023-02-28T20:14:59.916Z,102641.50
2023-02-28T20:17:28.163Z,102637.16
2023-02-28T20:19:54.960Z,102645.06
2023-02-28T20:22:21.505Z,102635.44
2023-02-28T20:24:48.439Z,102644.25
2023-02-28T20:27:15.675Z,102641.19
2023-02-28T20:29:42.192Z,102639.28
2023-02-28T20:32:08.895Z,102643.34
2023-02-28T20:34:35.506Z,102642.50
2023-02-28T20:37:02.030Z,102631.16
2023-02-28T20:39:28.661Z,102638.88
2023-02-28T20:41:55.148Z,102635.13
2023-02-28T20:44:21.625Z,102647.00
2023-02-28T20:46:48.163Z,102635.34
2023-02-28T20:49:15.777Z,102638.16
2023-02-28T20:51:42.382Z,102641.50
2023-02-28T20:54:11.745Z,102645.34
2023-02-28T20:56:38.527Z,102627.50
2023-02-28T20:59:05.661Z,102639.25
2023-02-28T21:01:32.499Z,102646.13
2023-02-28T21:04:06.012Z,102635.31
2023-02-28T21:06:39.492Z,102643.59
2023-02-28T21:09:08.235Z,102643.16
2023-02-28T21:11:36.993Z,102645.78
2023-02-28T21:14:10.774Z,102646.06
2023-02-28T21:16:38.088Z,102642.84
2023-02-28T21:19:05.146Z,102644.03
2023-02-28T21:21:43.761Z,102651.53
2023-02-28T21:24:11.976Z,102651.88
2023-02-28T21:26:39.799Z,102645.41
2023-02-28T21:29:06.521Z,102648.66
2023-02-28T21:31:34.827Z,102644.88
2023-02-28T21:34:03.284Z,102644.97
2023-02-28T21:36:33.047Z,102645.56
2023-02-28T21:39:02.592Z,102652.72
2023-02-28T21:41:29.116Z,102642.91
2023-02-28T21:43:56.248Z,102655.03
2023-02-28T21:46:25.549Z,102659.97
2023-02-28T21:48:52.444Z,102657.53
2023-02-28T21:51:21.988Z,102656.50
2023-02-28T21:53:49.238Z,102655.72
2023-02-28T21:56:21.704Z,102653.56
2023-02-28T21:58:48.744Z,102661.81
2023-02-28T22:01:20.785Z,102644.63
2023-02-28T22:03:48.778Z,102653.41
2023-02-28T22:06:19.053Z,102654.56
2023-02-28T22:08:48.009Z,102646.31
2023-02-28T22:11:16.359Z,102648.25
2023-02-28T22:13:43.851Z,102643.13
2023-02-28T22:16:15.742Z,102650.22
2023-02-28T22:18:43.535Z,102654.56
2023-02-28T22:21:12.296Z,102651.31
2023-02-28T22:23:40.242Z,102654.63
2023-02-28T22:26:09.662Z,102650.06
2023-02-28T22:28:36.908Z,102649.28
2023-02-28T22:31:42.194Z,102654.31
2023-02-28T22:34:11.810Z,102646.56
2023-02-28T22:36:41.769Z,102649.63
2023-02-28T22:39:08.666Z,102648.59
2023-02-28T22:41:35.154Z,102658.47
2023-02-28T22:44:03.948Z,102647.88
2023-02-28T22:46:33.209Z,102656.13
2023-02-28T22:49:03.885Z,102653.97
2023-02-28T22:51:30.873Z,102648.28
2023-02-28T22:53:58.435Z,102655.09
2023-02-28T22:56:27.431Z,102649.84
2023-02-28T22:58:56.757Z,102654.22
2023-02-28T23:01:26.263Z,102655.31
2023-02-28T23:03:53.974Z,102648.81
2023-02-28T23:06:26.565Z,102667.34
2023-02-28T23:08:57.023Z,102668.72
2023-02-28T23:11:32.530Z,102654.63
2023-02-28T23:13:59.547Z,102660.84
2023-02-28T23:16:31.379Z,102668.78
2023-02-28T23:18:59.877Z,102669.06
2023-02-28T23:21:27.281Z,102674.59
2023-02-28T23:23:54.800Z,102676.25
2023-02-28T23:26:21.563Z,102679.66
2023-02-28T23:28:48.119Z,102674.81
2023-02-28T23:31:15.324Z,102664.53
2023-02-28T23:33:44.389Z,102676.53
2023-02-28T23:36:13.521Z,102677.88
2023-02-28T23:38:41.907Z,102674.03
2023-02-28T23:41:10.198Z,102674.88
2023-02-28T23:43:37.106Z,102678.44
2023-02-28T23:46:04.149Z,102678.50
2023-02-28T23:48:30.668Z,102680.97
2023-02-28T23:51:01.669Z,102684.53
2023-02-28T23:53:30.975Z,102682.06
2023-02-28T23:55:57.518Z,102687.53
2023-02-28T23:58:24.014Z,102687.56
